KOZR/OZR METAR and TAF weather

Enter ICAO airport designator
Station Type Date Time Source
KOZR METAR 2021/01/16 02:56 UTC NOAA

KOZR 160256Z AUTO 27004KT 10SM CLR 07/M08 A2985 RMK AO2 SLP111 T00711081 52025


Station Type Date Time Source
KOZR Decoded METAR 2021/01/16 02:56 UTC NOAA

Cairns Army Air Field / Ozark, AL, United States (KOZR) 31-17N 085-43W
Jan 15, 2021 - 09:56 PM EST / 2021.01.16 0256 UTC
Wind: from the W (270 degrees) at 5 MPH (4 KT):0
Visibility: 10 mile(s):0
Sky conditions: clear
Temperature: 44.8 F (7.1 C)
Dew Point: 17.4 F (-8.1 C)
Relative Humidity: 32%
Pressure (altimeter): 29.85 in. Hg (1010 hPa)
Pressure tendency: 0.07 inches (2.5 hPa) higher than three hours ago
ob: KOZR 160256Z AUTO 27004KT 10SM CLR 07/M08 A2985 RMK AO2 SLP111 T00711081 52025
cycle: 3

Station Type Date Time Source
KOZR TAF 2021/01/16 02:57 UTC NOAA

TAF KOZR 160200Z 1602/1708 28009KT 9999 SKC 510009 QNH2981INS
BECMG 1614/1615 28012G22KT 9999 SCT060 QNH2992INS
BECMG 1623/1624 28007KT 9999 SCT060 QNH2998INS TX09/1620Z TN01/1612Z LAST NO
AMDS AFT 1607 NEXT 1616

Example: see airport list